createdAt,value
2018-08-22T00:01:09.185Z,1001.06
2018-08-22T00:02:19.271Z,1001.08
2018-08-22T00:03:29.103Z,1001.06
2018-08-22T00:04:39.188Z,1001.07
2018-08-22T00:05:48.996Z,1001.03
2018-08-22T00:06:59.062Z,1001.05
2018-08-22T00:08:09.125Z,1001.04
2018-08-22T00:09:19.220Z,1001.04
2018-08-22T00:10:29.304Z,1001.04
2018-08-22T00:11:39.381Z,1001.03
2018-08-22T00:12:49.461Z,1001.05
2018-08-22T00:13:59.551Z,1001.02
2018-08-22T00:15:09.471Z,1001.05
2018-08-22T00:16:20.510Z,1001.01
2018-08-22T00:17:30.612Z,1000.99
2018-08-22T00:18:40.438Z,1000.98
2018-08-22T00:19:50.515Z,1001.04
2018-08-22T00:21:00.323Z,1001.08
2018-08-22T00:22:10.461Z,1001.08
2018-08-22T00:23:20.562Z,1001.05
2018-08-22T00:24:30.644Z,1001.08
2018-08-22T00:25:40.733Z,1001.12
2018-08-22T00:26:50.565Z,1001.09
2018-08-22T00:28:01.374Z,1001.12
2018-08-22T00:29:11.505Z,1001.09
2018-08-22T00:30:22.276Z,1001.09
2018-08-22T00:31:32.362Z,1001.09
2018-08-22T00:32:42.198Z,1001.07
2018-08-22T00:33:52.340Z,1001.04
2018-08-22T00:35:02.411Z,1001.04
2018-08-22T00:36:12.241Z,1001.04
2018-08-22T00:37:22.319Z,1001.04
2018-08-22T00:38:32.402Z,1001.06
2018-08-22T00:39:42.473Z,1001.04
2018-08-22T00:40:52.280Z,1001.06
2018-08-22T00:42:02.346Z,1001.05
2018-08-22T00:43:12.407Z,1001.05
2018-08-22T00:44:22.482Z,1001.05
2018-08-22T00:45:32.565Z,1001.01
2018-08-22T00:46:42.369Z,1001.03
2018-08-22T00:47:52.444Z,1001.02
2018-08-22T00:49:02.506Z,1001.03
2018-08-22T00:50:12.333Z,1001.06
2018-08-22T00:51:22.153Z,1001.05
2018-08-22T00:52:32.225Z,1001.05
2018-08-22T00:53:42.303Z,1001.07
2018-08-22T00:54:52.129Z,1001.12
2018-08-22T00:56:02.223Z,1001.1
2018-08-22T00:57:12.090Z,1001.11
2018-08-22T00:58:22.166Z,1001.11
2018-08-22T00:59:32.257Z,1001.11
2018-08-22T01:00:41.819Z,1001.09
2018-08-22T01:01:51.636Z,1001.11
2018-08-22T01:03:01.176Z,1001.09
2018-08-22T01:04:10.985Z,1001.14
2018-08-22T01:05:21.080Z,1001.11
2018-08-22T01:06:30.638Z,1001.1
2018-08-22T01:07:40.714Z,1001.1
2018-08-22T01:08:50.790Z,1001.11
2018-08-22T01:10:00.874Z,1001.12
2018-08-22T01:11:10.685Z,1001.06
2018-08-22T01:12:20.502Z,1001.05
2018-08-22T01:13:30.588Z,1001.04
2018-08-22T01:14:40.662Z,1001.03
2018-08-22T01:15:50.499Z,1001.02
2018-08-22T01:17:00.581Z,1001.01
2018-08-22T01:18:10.667Z,1000.99
2018-08-22T01:19:20.477Z,1001.03
2018-08-22T01:20:30.146Z,1001.03
2018-08-22T01:21:39.944Z,1001.07
2018-08-22T01:22:49.749Z,1001.08
2018-08-22T01:23:59.830Z,1001.08
2018-08-22T01:25:09.917Z,1001.1
2018-08-22T01:26:19.726Z,1001.1
2018-08-22T01:27:29.810Z,1001.06
2018-08-22T01:28:39.881Z,1001.11
2018-08-22T01:29:49.498Z,1001.11
2018-08-22T01:30:59.305Z,1001.1
2018-08-22T01:32:09.391Z,1001.11
2018-08-22T01:33:19.484Z,1001.17
2018-08-22T01:34:29.306Z,1001.18
2018-08-22T01:35:39.377Z,1001.15
2018-08-22T01:36:48.931Z,1001.17
2018-08-22T01:37:59.068Z,1001.15
2018-08-22T01:39:09.137Z,1001.14
2018-08-22T01:40:18.975Z,1001.18
2018-08-22T01:41:29.073Z,1001.17
2018-08-22T01:42:38.632Z,1001.16
2018-08-22T01:43:48.183Z,1001.16
2018-08-22T01:44:58.283Z,1001.16
2018-08-22T01:46:08.105Z,1001.11
2018-08-22T01:47:17.940Z,1001.14
2018-08-22T01:48:28.044Z,1001.11
2018-08-22T01:49:38.142Z,1001.15
2018-08-22T01:50:48.272Z,1001.1
2018-08-22T01:51:58.099Z,1001.1
2018-08-22T01:53:07.660Z,1001.09
2018-08-22T01:54:17.749Z,1001.04
2018-08-22T01:55:27.833Z,1001.06
2018-08-22T01:56:37.913Z,1001.04
2018-08-22T01:57:47.991Z,1001.1
2018-08-22T01:58:57.953Z,1001.09
2018-08-22T02:00:08.211Z,1001.1
2018-08-22T02:01:18.079Z,1001.07
2018-08-22T02:02:28.147Z,1001.06
2018-08-22T02:03:38.234Z,1001.11
2018-08-22T02:04:48.322Z,1001.09
2018-08-22T02:05:58.393Z,1001.13
2018-08-22T02:07:08.513Z,1001.15
2018-08-22T02:08:18.329Z,1001.16
2018-08-22T02:09:28.396Z,1001.09
2018-08-22T02:10:38.484Z,1001.13
2018-08-22T02:11:48.566Z,1001.14
2018-08-22T02:12:58.658Z,1001.11
2018-08-22T02:14:08.459Z,1001.11
2018-08-22T02:15:18.545Z,1001.14
2018-08-22T02:16:28.860Z,1001.1
2018-08-22T02:17:38.953Z,1001.12
2018-08-22T02:18:49.021Z,1001.11
2018-08-22T02:19:59.132Z,1001.12
2018-08-22T02:21:09.194Z,1001.11
2018-08-22T02:22:19.275Z,1001.12
2018-08-22T02:23:29.360Z,1001.1
2018-08-22T02:24:39.495Z,1001.12
2018-08-22T02:25:49.309Z,1001.08
2018-08-22T02:26:59.402Z,1001.07
2018-08-22T02:28:09.223Z,1001.1
2018-08-22T02:29:19.300Z,1001.1
2018-08-22T02:30:29.122Z,1001.15
2018-08-22T02:31:39.230Z,1001.15
2018-08-22T02:32:49.320Z,1001.09
2018-08-22T02:33:59.398Z,1001.13
2018-08-22T02:35:09.478Z,1001.11
2018-08-22T02:36:19.606Z,1001.15
2018-08-22T02:37:29.691Z,1001.13
2018-08-22T02:38:39.766Z,1001.09
2018-08-22T02:39:49.851Z,1001.12
2018-08-22T02:40:59.947Z,1001.1
2018-08-22T02:42:10.070Z,1001.13
2018-08-22T02:43:20.152Z,1001.13
2018-08-22T02:44:30.258Z,1001.09
2018-08-22T02:45:40.340Z,1001.12
2018-08-22T02:46:50.421Z,1001.1
2018-08-22T02:48:00.595Z,1001.15
2018-08-22T02:49:10.671Z,1001.12
2018-08-22T02:50:20.491Z,1001.16
2018-08-22T02:51:30.303Z,1001.2
2018-08-22T02:52:40.394Z,1001.18
2018-08-22T02:53:50.238Z,1001.16
2018-08-22T02:55:00.307Z,1001.16
2018-08-22T02:56:10.372Z,1001.15
2018-08-22T02:57:20.456Z,1001.13
2018-08-22T02:58:30.547Z,1001.16
2018-08-22T02:59:40.695Z,1001.16
2018-08-22T03:00:50.787Z,1001.17
2018-08-22T03:02:00.596Z,1001.14
2018-08-22T03:03:10.411Z,1001.15
2018-08-22T03:35:27.360Z,1001.23
2018-08-22T03:36:37.147Z,1001.25
2018-08-22T03:37:47.226Z,1001.25
2018-08-22T03:38:57.308Z,1001.27
2018-08-22T03:40:07.110Z,1001.25
2018-08-22T03:41:17.179Z,1001.29
2018-08-22T03:42:27.002Z,1001.32
2018-08-22T03:43:37.088Z,1001.29
2018-08-22T03:44:47.182Z,1001.32
2018-08-22T03:45:57.263Z,1001.32
2018-08-22T03:47:07.399Z,1001.32
2018-08-22T03:48:17.473Z,1001.33
2018-08-22T03:49:27.539Z,1001.35
2018-08-22T03:50:37.356Z,1001.36
2018-08-22T03:51:47.435Z,1001.35
2018-08-22T03:52:57.311Z,1001.36
2018-08-22T03:54:07.131Z,1001.41
2018-08-22T03:55:16.950Z,1001.37
2018-08-22T03:56:27.041Z,1001.39
2018-08-22T03:57:37.102Z,1001.41
2018-08-22T03:58:47.185Z,1001.44
2018-08-22T03:59:56.749Z,1001.43
2018-08-22T04:01:06.839Z,1001.46
2018-08-22T04:02:16.918Z,1001.47
2018-08-22T04:03:26.726Z,1001.45
2018-08-22T04:04:36.800Z,1001.44
2018-08-22T04:05:46.879Z,1001.44
2018-08-22T04:06:56.694Z,1001.44
2018-08-22T04:08:06.510Z,1001.45
2018-08-22T04:09:16.322Z,1001.48
2018-08-22T04:10:26.457Z,1001.54
2018-08-22T04:11:36.283Z,1001.51
2018-08-22T04:12:46.347Z,1001.52
2018-08-22T04:13:56.417Z,1001.5
2018-08-22T04:15:06.233Z,1001.5
2018-08-22T04:16:16.328Z,1001.53
2018-08-22T04:17:26.414Z,1001.52
2018-08-22T04:18:36.502Z,1001.54
2018-08-22T04:19:46.651Z,1001.53
2018-08-22T04:20:56.731Z,1001.53
2018-08-22T04:22:06.303Z,1001.57
2018-08-22T04:23:15.860Z,1001.6
2018-08-22T04:24:25.950Z,1001.61
2018-08-22T04:25:35.772Z,1001.63
2018-08-22T04:26:45.614Z,1001.63
2018-08-22T04:27:55.526Z,1001.62
2018-08-22T04:29:06.044Z,1001.65
2018-08-22T04:30:16.112Z,1001.65
2018-08-22T04:31:26.188Z,1001.67
2018-08-22T04:32:36.282Z,1001.66
2018-08-22T04:33:46.383Z,1001.67
2018-08-22T04:34:56.233Z,1001.67
2018-08-22T04:36:06.332Z,1001.66
2018-08-22T04:37:16.144Z,1001.62
2018-08-22T04:38:26.470Z,1001.74
2018-08-22T04:39:36.350Z,1001.71
2018-08-22T04:40:46.442Z,1001.75
2018-08-22T04:41:56.540Z,1001.74
2018-08-22T04:43:06.610Z,1001.81
2018-08-22T04:44:16.471Z,1001.92
2018-08-22T04:45:26.541Z,1001.87
2018-08-22T04:46:36.372Z,1001.88
2018-08-22T04:47:46.462Z,1001.87
2018-08-22T04:48:56.552Z,1001.9
2018-08-22T04:50:06.640Z,1001.93
2018-08-22T04:51:16.771Z,1002
2018-08-22T04:52:26.615Z,1001.98
2018-08-22T04:53:36.429Z,1002.03
2018-08-22T04:54:46.255Z,1002.03
2018-08-22T04:55:56.347Z,1002.03
2018-08-22T04:57:06.502Z,1002.04
2018-08-22T04:58:16.621Z,1002.04
2018-08-22T04:59:26.434Z,1001.98
2018-08-22T05:00:36.525Z,1002.04
2018-08-22T05:01:46.669Z,1002.03
2018-08-22T05:02:56.737Z,1001.95
2018-08-22T05:04:06.814Z,1001.98
2018-08-22T05:05:16.901Z,1002.04
2018-08-22T05:06:26.982Z,1001.99
2018-08-22T05:07:37.076Z,1002.01
2018-08-22T05:08:47.218Z,1001.95
2018-08-22T05:09:57.313Z,1001.99
2018-08-22T05:11:07.405Z,1001.99
2018-08-22T05:12:17.229Z,1002.04
2018-08-22T05:13:27.303Z,1002
2018-08-22T05:14:37.414Z,1002.01
2018-08-22T05:15:47.509Z,1002.03
2018-08-22T05:16:57.607Z,1002.03
2018-08-22T05:18:07.692Z,1002
2018-08-22T05:19:17.792Z,1002.04
2018-08-22T05:20:27.929Z,1002.09
2018-08-22T05:21:38.026Z,1002.09
2018-08-22T05:22:48.123Z,1002.07
2018-08-22T05:23:58.230Z,1002.03
2018-08-22T05:25:08.045Z,1002.05
2018-08-22T05:26:18.238Z,1002.02
2018-08-22T05:27:28.325Z,1002.07
2018-08-22T05:28:38.403Z,1002.04
2018-08-22T05:29:48.504Z,1002.03
2018-08-22T05:30:58.655Z,1002.05
2018-08-22T05:32:08.595Z,1002.03
2018-08-22T05:33:18.684Z,1002.05
2018-08-22T05:34:28.780Z,1002.07
2018-08-22T05:35:38.892Z,1002.05
2018-08-22T05:36:48.976Z,1002.06
2018-08-22T05:37:59.157Z,1002.08
2018-08-22T05:39:09.238Z,1002.07
2018-08-22T05:40:19.313Z,1002.08
2018-08-22T05:41:29.416Z,1002.1
2018-08-22T05:42:39.505Z,1002.11
2018-08-22T05:43:49.340Z,1002.09
2018-08-22T05:44:59.419Z,1002.08
2018-08-22T05:46:09.519Z,1001.95
2018-08-22T05:47:19.584Z,1001.83
2018-08-22T05:48:29.142Z,1001.85
2018-08-22T05:49:39.261Z,1001.83
2018-08-22T05:50:49.367Z,1001.93
2018-08-22T05:51:59.170Z,1002.05
2018-08-22T05:53:09.250Z,1001.98
2018-08-22T05:54:19.339Z,1001.93
2018-08-22T05:55:29.004Z,1001.91
2018-08-22T05:56:39.080Z,1001.93
2018-08-22T05:57:49.208Z,1001.89
2018-08-22T05:58:59.315Z,1001.94
2018-08-22T06:00:08.896Z,1001.97
2018-08-22T06:01:18.970Z,1002.11
2018-08-22T06:02:29.064Z,1002.05
2018-08-22T06:03:39.154Z,1002.02
2018-08-22T06:04:48.978Z,1001.92
2018-08-22T06:05:58.525Z,1001.92
2018-08-22T06:07:08.645Z,1001.95
2018-08-22T06:08:18.739Z,1001.97
2018-08-22T06:09:28.821Z,1002.09
2018-08-22T06:10:38.956Z,1002.09
2018-08-22T06:11:49.242Z,1002.06
2018-08-22T06:12:59.313Z,1001.98
2018-08-22T06:14:09.151Z,1001.94
2018-08-22T06:15:19.244Z,1001.97
2018-08-22T06:16:29.065Z,1002.03
2018-08-22T06:17:39.143Z,1002.03
2018-08-22T06:18:49.285Z,1002.02
2018-08-22T06:19:59.357Z,1002.05
2018-08-22T06:21:09.454Z,1002.05
2018-08-22T06:22:19.524Z,1002.06
2018-08-22T06:23:29.610Z,1002.05
2018-08-22T06:24:39.688Z,1002.06
2018-08-22T06:25:49.503Z,1002.06
2018-08-22T06:26:59.582Z,1002.04
2018-08-22T06:28:09.404Z,1002.07
2018-08-22T06:29:19.215Z,1002.05
2018-08-22T06:30:29.345Z,1002.05
2018-08-22T06:31:39.413Z,1002.07
2018-08-22T06:32:49.251Z,1002
2018-08-22T06:33:59.220Z,1002.04
2018-08-22T06:35:09.028Z,1002.06
2018-08-22T06:36:18.932Z,1002.05
2018-08-22T06:37:29.527Z,1002.01
2018-08-22T06:38:39.823Z,1002.04
2018-08-22T06:39:49.896Z,1002
2018-08-22T06:40:59.727Z,1002.04
2018-08-22T06:42:09.572Z,1002.04
2018-08-22T06:43:19.674Z,1002
2018-08-22T06:44:29.762Z,1002.01
2018-08-22T06:45:39.835Z,1001.96
2018-08-22T06:46:49.911Z,1002.03
2018-08-22T06:47:59.746Z,1002
2018-08-22T06:49:09.858Z,1001.99
2018-08-22T06:50:19.767Z,1002.04
2018-08-22T06:51:29.958Z,1001.97
2018-08-22T06:52:39.780Z,1002.06
2018-08-22T06:53:49.868Z,1002.06
2018-08-22T06:54:59.941Z,1002.05
2018-08-22T06:56:10.034Z,1002.01
2018-08-22T06:57:19.875Z,1002
2018-08-22T06:58:29.962Z,1001.97
2018-08-22T06:59:40.095Z,1001.98
2018-08-22T07:00:49.961Z,1001.96
2018-08-22T07:01:59.779Z,1001.98
2018-08-22T07:03:09.874Z,1001.99
2018-08-22T07:04:19.978Z,1001.94
2018-08-22T07:05:30.071Z,1001.93
2018-08-22T07:06:39.890Z,1001.94
2018-08-22T07:07:49.989Z,1001.95
2018-08-22T07:09:00.018Z,1001.94
2018-08-22T07:10:09.830Z,1001.92
2018-08-22T07:11:19.913Z,1001.92
2018-08-22T07:12:30.055Z,1001.89
2018-08-22T07:13:39.883Z,1001.9
2018-08-22T07:14:49.992Z,1001.89
2018-08-22T07:16:00.095Z,1001.91
2018-08-22T07:17:10.192Z,1001.87
2018-08-22T07:18:20.267Z,1001.89
2018-08-22T07:19:30.105Z,1001.87
2018-08-22T07:20:40.190Z,1001.89
2018-08-22T07:21:50.153Z,1001.88
2018-08-22T07:23:00.392Z,1001.87
2018-08-22T07:24:10.477Z,1001.87
2018-08-22T07:25:20.322Z,1001.86
2018-08-22T07:26:30.142Z,1001.88
2018-08-22T07:27:40.223Z,1001.87
2018-08-22T07:28:50.315Z,1001.88
2018-08-22T07:30:00.464Z,1001.85
2018-08-22T07:31:10.216Z,1001.84
2018-08-22T07:32:20.048Z,1001.85
2018-08-22T07:33:30.128Z,1001.8
2018-08-22T07:34:40.245Z,1001.82
2018-08-22T07:35:50.413Z,1001.82
2018-08-22T07:37:00.318Z,1001.81
2018-08-22T07:38:10.401Z,1001.8
2018-08-22T07:39:20.226Z,1001.8
2018-08-22T07:40:30.315Z,1001.8
2018-08-22T07:41:40.509Z,1001.79
2018-08-22T07:42:50.058Z,1001.8
2018-08-22T07:44:00.142Z,1001.77
2018-08-22T07:45:09.953Z,1001.76
2018-08-22T07:46:19.508Z,1001.77
2018-08-22T07:47:29.655Z,1001.76
2018-08-22T07:48:39.735Z,1001.77
2018-08-22T07:49:49.824Z,1001.77
2018-08-22T07:50:59.664Z,1001.77
2018-08-22T07:52:09.774Z,1001.79
2018-08-22T07:53:19.657Z,1001.82
2018-08-22T07:54:30.218Z,1001.84
2018-08-22T07:55:40.312Z,1001.81
2018-08-22T07:56:50.135Z,1001.81
2018-08-22T07:58:00.305Z,1001.8
2018-08-22T07:59:09.917Z,1001.77
2018-08-22T08:00:20.000Z,1001.82
2018-08-22T08:01:30.082Z,1001.82
2018-08-22T08:02:39.945Z,1001.81
2018-08-22T08:03:50.064Z,1001.76
2018-08-22T08:05:00.401Z,1001.77
2018-08-22T08:06:10.489Z,1001.73
2018-08-22T08:07:20.576Z,1001.8
2018-08-22T08:08:30.722Z,1001.8
2018-08-22T08:09:41.155Z,1001.79
2018-08-22T08:10:51.311Z,1001.79
2018-08-22T08:12:01.736Z,1001.81
2018-08-22T08:13:11.590Z,1001.8
2018-08-22T08:14:21.448Z,1001.76
2018-08-22T08:15:31.526Z,1001.71
2018-08-22T08:16:41.669Z,1001.72
2018-08-22T08:17:51.503Z,1001.75
2018-08-22T08:19:01.380Z,1001.8
2018-08-22T08:20:11.485Z,1001.73
2018-08-22T08:21:21.606Z,1001.73
2018-08-22T08:22:31.759Z,1001.73
2018-08-22T08:23:41.850Z,1001.74
2018-08-22T08:24:51.944Z,1001.76
2018-08-22T08:26:01.810Z,1001.73
2018-08-22T08:27:12.405Z,1001.74
2018-08-22T08:28:22.243Z,1001.7
2018-08-22T08:29:32.330Z,1001.71
2018-08-22T08:30:42.472Z,1001.73
2018-08-22T08:31:52.355Z,1001.68
2018-08-22T08:33:02.207Z,1001.73
2018-08-22T08:34:11.773Z,1001.68
2018-08-22T08:35:21.867Z,1001.68
2018-08-22T08:36:31.953Z,1001.65
2018-08-22T08:37:42.048Z,1001.67
2018-08-22T08:38:52.233Z,1001.62
2018-08-22T08:40:02.363Z,1001.61
2018-08-22T08:41:12.251Z,1001.6
2018-08-22T08:42:22.384Z,1001.57
2018-08-22T08:43:32.258Z,1001.58
2018-08-22T08:44:42.390Z,1001.61
2018-08-22T08:45:52.489Z,1001.62
2018-08-22T08:47:02.627Z,1001.58
2018-08-22T08:48:12.781Z,1001.57
2018-08-22T08:49:22.973Z,1001.59
2018-08-22T08:50:33.562Z,1001.61
2018-08-22T08:51:43.516Z,1001.61
2018-08-22T08:52:53.320Z,1001.56
2018-08-22T08:54:03.437Z,1001.56
2018-08-22T08:55:13.251Z,1001.52
2018-08-22T08:56:23.087Z,1001.5
2018-08-22T08:57:32.697Z,1001.52
2018-08-22T08:58:42.798Z,1001.48
2018-08-22T08:59:52.951Z,1001.45
2018-08-22T09:01:02.914Z,1001.45
2018-08-22T09:02:13.060Z,1001.43
2018-08-22T09:03:23.232Z,1001.44
2018-08-22T09:04:33.340Z,1001.45
2018-08-22T09:05:43.210Z,1001.45
2018-08-22T09:06:53.085Z,1001.44
2018-08-22T09:08:03.285Z,1001.43
2018-08-22T09:09:13.170Z,1001.47
2018-08-22T09:10:22.985Z,1001.43
2018-08-22T09:11:33.093Z,1001.45
2018-08-22T09:12:43.188Z,1001.44
2018-08-22T09:13:53.283Z,1001.41
2018-08-22T09:15:03.209Z,1001.43
2018-08-22T09:16:13.301Z,1001.43
2018-08-22T09:17:23.268Z,1001.44
2018-08-22T09:18:33.552Z,1001.42
2018-08-22T09:19:43.676Z,1001.41
2018-08-22T09:20:53.786Z,1001.42
2018-08-22T09:22:04.100Z,1001.35
2018-08-22T09:23:13.974Z,1001.36
2018-08-22T09:24:24.133Z,1001.36
2018-08-22T09:25:34.317Z,1001.32
2018-08-22T09:26:44.401Z,1001.33
2018-08-22T09:27:54.512Z,1001.35
2018-08-22T09:29:04.748Z,1001.26
2018-08-22T09:30:14.570Z,1001.3
2018-08-22T09:31:24.669Z,1001.26
2018-08-22T09:32:34.575Z,1001.3
2018-08-22T09:33:44.740Z,1001.25
2018-08-22T09:34:55.025Z,1001.28
2018-08-22T09:36:05.121Z,1001.25
2018-08-22T09:37:15.201Z,1001.21
2018-08-22T09:38:25.339Z,1001.23
2018-08-22T09:39:35.170Z,1001.24
2018-08-22T09:40:45.479Z,1001.21
2018-08-22T09:41:55.592Z,1001.18
2018-08-22T09:43:06.132Z,1001.2
2018-08-22T09:44:16.496Z,1001.19
2018-08-22T09:45:26.410Z,1001.14
2018-08-22T09:46:36.535Z,1001.12
2018-08-22T09:47:47.150Z,1001.13
2018-08-22T09:48:56.960Z,1001.14
2018-08-22T09:50:07.045Z,1001.11
2018-08-22T09:51:17.028Z,1001.07
2018-08-22T09:52:27.253Z,1001.09
2018-08-22T09:53:37.396Z,1001.11
2018-08-22T09:54:46.954Z,1001.08
2018-08-22T09:55:57.034Z,1001.09
2018-08-22T09:57:07.118Z,1001.08
2018-08-22T09:58:17.025Z,1001.06
2018-08-22T09:59:27.384Z,1001.06
2018-08-22T10:00:37.500Z,1001.05
2018-08-22T10:01:48.007Z,1001.01
2018-08-22T10:02:58.095Z,1001.01
2018-08-22T10:04:08.200Z,1000.98
2018-08-22T10:05:17.869Z,1000.95
2018-08-22T10:06:28.077Z,1000.99
2018-08-22T10:07:39.042Z,1000.96
2018-08-22T10:08:49.133Z,1000.96
2018-08-22T10:09:59.024Z,1000.92
2018-08-22T10:11:09.705Z,1000.97
2018-08-22T10:12:19.799Z,1000.93
2018-08-22T10:13:29.891Z,1000.91
2018-08-22T10:14:39.723Z,1000.91
2018-08-22T10:15:49.946Z,1000.85
2018-08-22T10:17:00.026Z,1000.86
2018-08-22T10:18:09.615Z,1000.88
2018-08-22T10:19:19.422Z,1000.89
2018-08-22T10:20:29.553Z,1000.85
2018-08-22T10:21:39.655Z,1000.83
2018-08-22T10:22:49.199Z,1000.83
2018-08-22T10:23:59.011Z,1000.79
2018-08-22T10:25:09.117Z,1000.81
2018-08-22T10:26:18.944Z,1000.76
2018-08-22T10:27:29.132Z,1000.75
2018-08-22T10:28:39.214Z,1000.79
2018-08-22T10:29:49.328Z,1000.78
2018-08-22T10:30:59.422Z,1000.74
2018-08-22T10:32:09.520Z,1000.72
2018-08-22T10:33:19.606Z,1000.72
2018-08-22T10:34:29.487Z,1000.74
2018-08-22T10:35:39.573Z,1000.7
2018-08-22T10:36:49.141Z,1000.65
2018-08-22T10:37:58.952Z,1000.61
2018-08-22T10:39:09.041Z,1000.66
2018-08-22T10:40:19.170Z,1000.58
2018-08-22T10:41:29.267Z,1000.59
2018-08-22T10:42:38.905Z,1000.59
2018-08-22T10:43:48.990Z,1000.57
2018-08-22T10:44:59.079Z,1000.53
2018-08-22T10:46:08.906Z,1000.57
2018-08-22T10:47:19.007Z,1000.51
2018-08-22T10:48:29.122Z,1000.58
2018-08-22T10:49:38.955Z,1000.56
2018-08-22T10:50:49.058Z,1000.51
2018-08-22T10:51:59.290Z,1000.52
2018-08-22T10:53:09.162Z,1000.48
2018-08-22T10:54:19.253Z,1000.48
2018-08-22T10:55:29.362Z,1000.46
2018-08-22T10:56:39.444Z,1000.41
2018-08-22T10:57:49.560Z,1000.4
2018-08-22T10:58:59.643Z,1000.45
2018-08-22T11:00:09.726Z,1000.4
2018-08-22T11:01:19.811Z,1000.41
2018-08-22T11:02:29.896Z,1000.38
2018-08-22T11:03:39.983Z,1000.33
2018-08-22T11:04:49.543Z,1000.3
2018-08-22T11:05:59.392Z,1000.35
2018-08-22T11:07:09.488Z,1000.3
2018-08-22T11:08:19.571Z,1000.33
2018-08-22T11:09:29.380Z,1000.33
2018-08-22T11:10:39.485Z,1000.34
2018-08-22T11:11:49.311Z,1000.26
2018-08-22T11:12:59.403Z,1000.28
2018-08-22T11:14:09.501Z,1000.27
2018-08-22T11:15:19.334Z,1000.24
2018-08-22T11:16:29.454Z,1000.25
2018-08-22T11:17:39.556Z,1000.23
2018-08-22T11:18:49.404Z,1000.19
2018-08-22T11:19:59.232Z,1000.18
2018-08-22T11:21:09.406Z,1000.19
2018-08-22T11:22:19.007Z,1000.22
2018-08-22T11:23:29.346Z,1000.12
2018-08-22T11:24:39.444Z,1000.08
2018-08-22T11:25:49.552Z,1000.15
2018-08-22T11:26:59.689Z,1000.11
2018-08-22T11:28:09.788Z,1000.14
2018-08-22T11:29:19.888Z,1000.12
2018-08-22T11:30:29.704Z,1000.08
2018-08-22T11:31:39.266Z,1000.05
2018-08-22T11:32:49.436Z,1000
2018-08-22T11:33:59.515Z,1000.05
2018-08-22T11:35:09.621Z,1000.01
2018-08-22T11:36:19.445Z,1000.04
2018-08-22T11:37:29.278Z,1000.05
2018-08-22T11:38:39.366Z,1000.09
2018-08-22T11:39:49.209Z,1000.04
2018-08-22T11:40:59.327Z,1000.04
2018-08-22T11:42:09.161Z,1000
2018-08-22T11:43:19.263Z,999.96
2018-08-22T11:44:29.616Z,999.93
2018-08-22T11:45:39.451Z,999.89
2018-08-22T11:46:49.583Z,999.93
2018-08-22T11:47:59.949Z,999.87
2018-08-22T11:49:10.022Z,999.86
2018-08-22T11:50:19.860Z,999.83
2018-08-22T11:51:30.014Z,999.85
2018-08-22T11:52:39.583Z,999.84
2018-08-22T11:53:49.677Z,999.84
2018-08-22T11:54:59.773Z,999.83
2018-08-22T11:56:10.000Z,999.82
2018-08-22T11:57:19.927Z,999.8
2018-08-22T11:58:30.008Z,999.78
2018-08-22T11:59:40.118Z,999.79
2018-08-22T12:00:50.224Z,999.8
2018-08-22T12:02:00.523Z,999.78
2018-08-22T12:03:10.816Z,999.74
2018-08-22T12:04:20.919Z,999.75
2018-08-22T12:05:30.991Z,999.76
2018-08-22T12:06:41.073Z,999.75
2018-08-22T12:07:51.169Z,999.77
2018-08-22T12:09:01.285Z,999.78
2018-08-22T12:10:11.115Z,999.78
2018-08-22T12:11:21.206Z,999.74
2018-08-22T12:12:31.307Z,999.73
2018-08-22T12:13:41.300Z,999.73
2018-08-22T12:14:51.391Z,999.73
2018-08-22T12:16:01.513Z,999.76
2018-08-22T12:17:12.050Z,999.72
2018-08-22T12:18:22.149Z,999.7
2018-08-22T12:19:32.282Z,999.66
2018-08-22T12:20:42.378Z,999.64
2018-08-22T12:21:52.465Z,999.6
2018-08-22T12:23:02.331Z,999.59
2018-08-22T12:24:13.149Z,999.53
2018-08-22T12:25:23.258Z,999.56
2018-08-22T12:26:33.339Z,999.51
2018-08-22T12:27:43.432Z,999.53
2018-08-22T12:28:53.624Z,999.5
2018-08-22T12:30:03.725Z,999.43
2018-08-22T12:31:13.710Z,999.44
2018-08-22T12:32:23.946Z,999.44
2018-08-22T12:33:34.028Z,999.47
2018-08-22T12:34:43.874Z,999.49
2018-08-22T12:35:53.988Z,999.46
2018-08-22T12:37:04.066Z,999.45
2018-08-22T12:38:13.882Z,999.45
2018-08-22T12:39:23.973Z,999.42
2018-08-22T12:40:34.070Z,999.43
2018-08-22T12:41:44.188Z,999.38
2018-08-22T12:42:54.271Z,999.35
2018-08-22T12:44:04.369Z,999.36
2018-08-22T12:45:13.953Z,999.36
2018-08-22T12:46:23.791Z,999.31
2018-08-22T12:47:33.615Z,999.33
2018-08-22T12:48:43.431Z,999.25
2018-08-22T12:49:53.517Z,999.25
2018-08-22T12:51:03.597Z,999.24
2018-08-22T12:52:13.418Z,999.19
2018-08-22T12:53:22.985Z,999.14
2018-08-22T12:54:33.078Z,999.22
2018-08-22T12:55:43.180Z,999.17
2018-08-22T12:56:53.275Z,999.2
2018-08-22T12:58:02.973Z,999.18
2018-08-22T12:59:13.061Z,999.16
2018-08-22T13:00:23.168Z,999.15
2018-08-22T13:01:33.260Z,999.16
2018-08-22T13:02:42.884Z,999.12
2018-08-22T13:03:52.993Z,999.09
2018-08-22T13:05:02.806Z,999.06
2018-08-22T13:06:12.936Z,999.06
2018-08-22T13:07:23.029Z,999.03
2018-08-22T13:08:33.155Z,999.04
2018-08-22T13:09:43.233Z,999.01
2018-08-22T13:10:53.321Z,998.97
2018-08-22T13:12:03.537Z,998.97
2018-08-22T13:13:13.634Z,998.95
2018-08-22T13:14:23.726Z,999.01
2018-08-22T13:15:33.837Z,998.95
2018-08-22T13:16:43.931Z,998.93
2018-08-22T13:17:53.819Z,998.89
2018-08-22T13:19:03.672Z,998.88
2018-08-22T13:20:13.503Z,998.88
2018-08-22T13:21:23.615Z,998.86
2018-08-22T13:22:33.739Z,998.85
2018-08-22T13:23:43.843Z,998.83
2018-08-22T13:24:53.695Z,998.84
2018-08-22T13:26:03.779Z,998.81
2018-08-22T13:27:13.894Z,998.76
2018-08-22T13:28:23.460Z,998.74
2018-08-22T13:29:33.539Z,998.62
2018-08-22T13:30:43.656Z,998.72
2018-08-22T13:31:53.548Z,998.75
2018-08-22T13:33:03.641Z,998.73
2018-08-22T13:34:13.469Z,998.68
2018-08-22T13:35:23.286Z,998.67
2018-08-22T13:36:33.117Z,998.7
2018-08-22T13:37:43.205Z,998.68
2018-08-22T13:38:53.323Z,998.63
2018-08-22T13:40:03.667Z,998.62
2018-08-22T13:41:13.954Z,998.7
2018-08-22T13:42:23.516Z,998.69
2018-08-22T13:43:33.357Z,998.66
2018-08-22T13:44:43.188Z,998.66
2018-08-22T13:45:53.026Z,998.66
2018-08-22T13:47:03.263Z,998.65
2018-08-22T13:48:13.358Z,998.63
2018-08-22T13:49:23.486Z,998.6
2018-08-22T13:50:33.368Z,998.6
2018-08-22T13:51:43.584Z,998.56
2018-08-22T13:52:53.674Z,998.56
2018-08-22T13:54:03.778Z,998.55
2018-08-22T13:55:13.627Z,998.51
2018-08-22T13:56:23.556Z,998.51
2018-08-22T13:57:34.003Z,998.46
2018-08-22T13:58:44.079Z,998.46
2018-08-22T13:59:54.160Z,998.46
2018-08-22T14:01:04.256Z,998.55
2018-08-22T14:02:14.367Z,998.51
2018-08-22T14:03:24.213Z,998.45
2018-08-22T14:04:34.409Z,998.49
2018-08-22T14:05:44.523Z,998.44
2018-08-22T14:06:54.661Z,998.47
2018-08-22T14:08:04.738Z,998.48
2018-08-22T14:09:14.556Z,998.41
2018-08-22T14:10:24.672Z,998.42
2018-08-22T14:11:33.992Z,998.43
2018-08-22T14:12:44.153Z,998.43
2018-08-22T14:13:54.248Z,998.41
2018-08-22T14:15:04.359Z,998.41
2018-08-22T14:16:14.474Z,998.38
2018-08-22T14:17:24.566Z,998.35
2018-08-22T14:18:34.681Z,998.35
2018-08-22T14:19:44.255Z,998.35
2018-08-22T14:20:54.368Z,998.32
2018-08-22T14:22:04.450Z,998.3
2018-08-22T14:23:14.532Z,998.34
2018-08-22T14:24:24.608Z,998.28
2018-08-22T14:25:34.684Z,998.28
2018-08-22T14:26:44.790Z,998.3
2018-08-22T14:27:54.884Z,998.3
2018-08-22T14:29:05.080Z,998.27
2018-08-22T14:30:15.203Z,998.3
2018-08-22T14:31:25.331Z,998.26
2018-08-22T14:32:35.524Z,998.29
2018-08-22T14:33:45.163Z,998.27
2018-08-22T14:34:55.692Z,998.29
2018-08-22T14:36:05.785Z,998.29
2018-08-22T14:37:15.895Z,998.29
2018-08-22T14:38:25.734Z,998.24
2018-08-22T14:39:35.828Z,998.2
2018-08-22T14:40:45.668Z,998.16
2018-08-22T14:41:55.763Z,998.2
2018-08-22T14:43:05.857Z,998.19
2018-08-22T14:44:15.682Z,998.22
2018-08-22T14:45:25.784Z,998.2
2018-08-22T14:46:35.984Z,998.13
2018-08-22T14:47:46.103Z,998.15